Time;durP1;ratioP1;P1;durP2;ratioP2;P2;SDS_P1;SDS_P2;PMS_P1;PMS_P2;Temp;Humidity;BMP_temperature;BMP_pressure;BME280_temperature;BME280_humidity;BME280_pressure;Samples;Min_cycle;Max_cycle;Signal;HPM_P1;HPM_P2
2022/12/29 00:02:12;;;;;;;;;;;9.00;99.90;;;;;;5007088;28;19910;-80
2022/12/29 00:04:38;;;;;;;;;;;8.90;99.90;;;;;;5023213;28;20308;-79
2022/12/29 00:07:06;;;;;;;;;;;8.90;99.90;;;;;;5013954;28;19916;-77
2022/12/29 00:09:32;;;;;;;;;;;9.00;99.90;;;;;;5020650;28;19913;-80
2022/12/29 00:11:59;;;;;;;;;;;8.90;99.90;;;;;;5006134;28;19913;-80
2022/12/29 00:17:08;;;;;;;;;;;8.90;99.90;;;;;;5023662;28;19916;-80
2022/12/29 00:36:13;;;;;;;;;;;8.90;99.90;;;;;;5016802;28;19990;-68
2022/12/29 00:44:12;;;;;;;;;;;9.00;99.90;;;;;;5015668;28;19964;-79
2022/12/29 00:46:38;;;;;;;;;;;9.10;99.90;;;;;;5015633;28;20312;-71
2022/12/29 00:51:49;;;;;;;;;;;9.10;99.90;;;;;;5016735;28;19961;-74
2022/12/29 00:54:15;;;;;;;;;;;9.20;99.90;;;;;;5032967;28;19909;-81
2022/12/29 00:56:40;;;;;;;;;;;9.20;99.90;;;;;;5015155;28;19909;-80
2022/12/29 00:59:07;;;;;;;;;;;9.20;99.90;;;;;;5016023;28;19917;-67
2022/12/29 01:01:33;;;;;;;;;;;9.20;99.90;;;;;;5014710;28;19916;-81
2022/12/29 01:03:58;;;;;;;;;;;9.30;99.90;;;;;;5002545;28;19996;-79
2022/12/29 01:06:24;;;;;;;;;;;9.30;99.90;;;;;;5016177;28;19909;-81
2022/12/29 01:10:09;;;;;;;;;;;9.20;99.90;;;;;;5016426;28;19921;-67
2022/12/29 01:11:36;;;;;;;;;;;9.30;99.90;;;;;;5015916;28;20350;-74
2022/12/29 01:14:02;;;;;;;;;;;9.40;99.90;;;;;;5015849;28;19949;-81
2022/12/29 01:16:28;;;;;;;;;;;9.40;99.90;;;;;;5015942;28;19909;-80
2022/12/29 01:18:53;;;;;;;;;;;9.40;99.90;;;;;;5014717;28;20008;-80
2022/12/29 01:21:19;;;;;;;;;;;9.20;99.90;;;;;;5014734;28;19916;-80
2022/12/29 01:23:44;;;;;;;;;;;9.10;99.90;;;;;;5015999;28;19909;-81
2022/12/29 01:26:11;;;;;;;;;;;9.20;99.90;;;;;;5014342;28;19960;-80
2022/12/29 01:28:38;;;;;;;;;;;9.20;99.90;;;;;;5014278;28;19941;-75
2022/12/29 01:31:04;;;;;;;;;;;9.20;99.90;;;;;;4996824;28;19939;-81
2022/12/29 01:33:30;;;;;;;;;;;9.00;99.90;;;;;;5014604;28;19913;-79
2022/12/29 01:35:59;;;;;;;;;;;8.90;99.90;;;;;;4997548;28;20356;-78
2022/12/29 01:38:25;;;;;;;;;;;9.20;99.90;;;;;;4997869;28;20353;-72
2022/12/29 01:40:50;;;;;;;;;;;9.30;99.90;;;;;;5014405;28;19909;-81
2022/12/29 01:43:16;;;;;;;;;;;9.20;99.90;;;;;;5014512;28;20363;-81
2022/12/29 01:45:48;;;;;;;;;;;9.40;99.90;;;;;;5015369;28;19916;-81
2022/12/29 01:48:13;;;;;;;;;;;9.40;99.90;;;;;;4996993;28;19909;-80
2022/12/29 01:50:41;;;;;;;;;;;9.50;99.90;;;;;;5015458;28;20379;-80
2022/12/29 01:53:11;;;;;;;;;;;9.40;99.90;;;;;;5015652;28;19955;-80
2022/12/29 01:55:42;;;;;;;;;;;9.40;99.90;;;;;;5015523;28;19960;-69
2022/12/29 01:58:09;;;;;;;;;;;9.40;99.90;;;;;;5015205;28;19925;-67
2022/12/29 02:00:35;;;;;;;;;;;9.30;99.90;;;;;;5015373;28;19913;-81
2022/12/29 02:03:01;;;;;;;;;;;9.40;99.90;;;;;;4997877;28;19909;-82
2022/12/29 02:05:39;;;;;;;;;;;9.40;99.90;;;;;;5015420;28;20599;-76
2022/12/29 02:08:05;;;;;;;;;;;9.50;99.90;;;;;;5014741;28;20006;-70
2022/12/29 02:10:32;;;;;;;;;;;9.70;99.90;;;;;;5014871;28;20308;-82
2022/12/29 02:12:57;;;;;;;;;;;9.70;99.90;;;;;;5015234;28;20280;-68
2022/12/29 02:15:34;;;;;;;;;;;9.70;99.90;;;;;;4997416;28;19910;-79
2022/12/29 02:18:19;;;;;;;;;;;9.80;99.90;;;;;;4997357;28;19944;-80
2022/12/29 02:20:51;;;;;;;;;;;9.80;99.90;;;;;;4997613;28;20238;-81
2022/12/29 02:23:16;;;;;;;;;;;9.70;99.90;;;;;;5014664;28;19909;-81
2022/12/29 02:25:45;;;;;;;;;;;9.60;99.90;;;;;;4997135;28;19916;-81
2022/12/29 02:28:33;;;;;;;;;;;9.60;99.90;;;;;;4997167;28;19909;-81
2022/12/29 02:31:24;;;;;;;;;;;9.70;99.90;;;;;;5013760;28;19910;-80
2022/12/29 02:33:50;;;;;;;;;;;;;;;;;;5014800;28;19916;-79
2022/12/29 02:36:23;;;;;;;;;;;10.00;99.90;;;;;;5014692;28;19991;-82
2022/12/29 02:38:49;;;;;;;;;;;10.00;99.90;;;;;;5014588;28;19964;-82
2022/12/29 02:41:31;;;;;;;;;;;9.80;99.90;;;;;;5013996;28;19913;-81
2022/12/29 02:43:56;;;;;;;;;;;9.70;99.90;;;;;;5013479;28;20284;-82
2022/12/29 02:46:28;;;;;;;;;;;9.70;99.90;;;;;;5014789;28;19992;-81
2022/12/29 02:48:57;;;;;;;;;;;9.70;99.90;;;;;;5014461;28;20003;-76
2022/12/29 02:51:46;;;;;;;;;;;9.60;99.90;;;;;;5013921;28;19909;-76
2022/12/29 02:56:56;;;;;;;;;;;9.60;99.90;;;;;;5014722;28;20276;-81
2022/12/29 02:59:22;;;;;;;;;;;9.70;99.90;;;;;;5013150;28;19918;-81
2022/12/29 03:02:18;;;;;;;;;;;9.70;99.90;;;;;;5014326;28;19913;-79
2022/12/29 03:05:01;;;;;;;;;;;9.50;99.90;;;;;;5012744;28;19915;-78
2022/12/29 03:07:39;;;;;;;;;;;9.60;99.90;;;;;;4996749;28;19924;-71
2022/12/29 03:10:11;;;;;;;;;;;9.50;99.90;;;;;;5013750;28;19913;-81
2022/12/29 03:18:25;;;;;;;;;;;9.60;99.90;;;;;;5014502;28;19964;-81
2022/12/29 03:21:02;;;;;;;;;;;9.50;99.90;;;;;;5017969;28;19916;-82
2022/12/29 03:23:28;;;;;;;;;;;9.60;99.90;;;;;;5000618;28;19915;-67
2022/12/29 03:25:56;;;;;;;;;;;9.70;99.90;;;;;;5018061;28;20261;-82
2022/12/29 03:28:26;;;;;;;;;;;9.70;99.90;;;;;;5017876;28;20276;-72
2022/12/29 03:30:52;;;;;;;;;;;9.70;99.90;;;;;;5018274;28;19964;-82
2022/12/29 03:33:22;;;;;;;;;;;9.60;99.90;;;;;;5000308;28;20261;-81
2022/12/29 03:35:49;;;;;;;;;;;9.50;99.90;;;;;;5018072;28;19909;-67
2022/12/29 03:38:27;;;;;;;;;;;9.60;99.90;;;;;;5000452;28;19917;-73
2022/12/29 03:40:56;;;;;;;;;;;9.60;99.90;;;;;;5017700;28;20407;-81
2022/12/29 03:43:22;;;;;;;;;;;9.70;99.90;;;;;;5017944;28;19971;-82
2022/12/29 03:45:47;;;;;;;;;;;9.70;99.90;;;;;;5000025;28;20346;-75
2022/12/29 03:48:13;;;;;;;;;;;9.70;99.90;;;;;;5017826;28;19914;-81
2022/12/29 03:50:38;;;;;;;;;;;9.70;99.90;;;;;;5000076;28;19909;-80
2022/12/29 03:53:04;;;;;;;;;;;9.60;99.90;;;;;;5000077;28;20348;-82
2022/12/29 03:55:29;;;;;;;;;;;9.60;99.90;;;;;;5017607;28;20020;-81
2022/12/29 03:57:55;;;;;;;;;;;9.50;99.90;;;;;;5000082;28;19971;-71
2022/12/29 04:00:20;;;;;;;;;;;9.50;99.90;;;;;;4999640;28;19916;-82
2022/12/29 04:02:46;;;;;;;;;;;9.40;99.90;;;;;;5017738;28;19913;-82
2022/12/29 04:05:12;;;;;;;;;;;9.30;99.90;;;;;;5017074;28;19910;-82
2022/12/29 04:07:37;;;;;;;;;;;9.40;99.90;;;;;;5017135;28;19992;-81
2022/12/29 04:10:03;;;;;;;;;;;9.40;99.90;;;;;;5017525;28;19924;-82
2022/12/29 04:12:29;;;;;;;;;;;9.40;99.90;;;;;;4999834;28;20427;-82
2022/12/29 04:14:54;;;;;;;;;;;9.40;99.90;;;;;;5017054;28;19909;-72
2022/12/29 04:17:20;;;;;;;;;;;9.30;99.90;;;;;;5016918;28;20348;-82
2022/12/29 04:19:45;;;;;;;;;;;9.40;99.90;;;;;;5017148;28;19921;-80
2022/12/29 04:22:11;;;;;;;;;;;9.50;99.90;;;;;;4999485;28;19917;-81
2022/12/29 04:24:37;;;;;;;;;;;9.20;99.90;;;;;;5015615;28;19922;-80
2022/12/29 04:27:03;;;;;;;;;;;9.20;99.90;;;;;;5014774;28;19913;-82
2022/12/29 04:29:28;;;;;;;;;;;9.40;99.90;;;;;;5016258;28;19909;-81
2022/12/29 04:31:54;;;;;;;;;;;9.40;99.90;;;;;;5016952;28;19916;-82
2022/12/29 04:34:19;;;;;;;;;;;9.30;99.90;;;;;;5016364;28;20067;-82
2022/12/29 04:36:45;;;;;;;;;;;9.20;99.90;;;;;;4999482;28;20272;-77
2022/12/29 04:39:10;;;;;;;;;;;9.30;99.90;;;;;;4999468;28;19918;-82
2022/12/29 04:41:36;;;;;;;;;;;9.30;99.90;;;;;;5016693;28;19983;-81
2022/12/29 04:44:02;;;;;;;;;;;9.40;99.90;;;;;;4998974;28;19917;-82
2022/12/29 04:46:27;;;;;;;;;;;9.40;99.90;;;;;;5016807;28;19909;-68
2022/12/29 04:48:53;;;;;;;;;;;9.40;99.90;;;;;;4999175;28;19910;-82
2022/12/29 04:51:18;;;;;;;;;;;9.40;99.90;;;;;;4999003;28;20341;-82
2022/12/29 04:53:44;;;;;;;;;;;9.50;99.90;;;;;;5016329;28;19909;-80
2022/12/29 04:56:09;;;;;;;;;;;9.50;99.90;;;;;;5016390;28;19956;-82
2022/12/29 04:58:36;;;;;;;;;;;9.60;99.90;;;;;;5016154;28;20279;-82
2022/12/29 05:01:01;;;;;;;;;;;9.60;99.90;;;;;;5016559;28;19909;-82
2022/12/29 05:03:27;;;;;;;;;;;9.60;99.90;;;;;;4998770;28;19914;-81
2022/12/29 05:05:53;;;;;;;;;;;9.60;99.90;;;;;;4998499;28;20301;-82
2022/12/29 05:08:19;;;;;;;;;;;9.50;99.90;;;;;;5008692;28;19913;-81
2022/12/29 05:10:45;;;;;;;;;;;9.40;99.90;;;;;;5016118;28;20345;-78
2022/12/29 05:13:11;;;;;;;;;;;9.30;99.90;;;;;;4998600;28;19909;-82
2022/12/29 05:15:36;;;;;;;;;;;9.30;99.90;;;;;;4998547;28;19916;-79
2022/12/29 05:18:02;;;;;;;;;;;9.10;99.90;;;;;;5016139;28;20357;-82
2022/12/29 05:20:28;;;;;;;;;;;9.00;99.90;;;;;;5014853;28;19909;-82
2022/12/29 05:22:53;;;;;;;;;;;9.00;99.90;;;;;;4998968;28;19949;-74
2022/12/29 05:25:19;;;;;;;;;;;9.00;99.90;;;;;;5015511;28;19909;-82
2022/12/29 05:27:44;;;;;;;;;;;9.10;99.90;;;;;;5015828;28;20385;-69
2022/12/29 05:30:10;;;;;;;;;;;9.10;99.90;;;;;;5015553;28;19948;-82
2022/12/29 05:32:36;;;;;;;;;;;9.20;99.90;;;;;;5015972;28;19910;-81
2022/12/29 05:35:01;;;;;;;;;;;9.10;99.90;;;;;;4998207;28;19909;-80
2022/12/29 05:37:27;;;;;;;;;;;9.20;99.90;;;;;;5015876;28;20042;-81
2022/12/29 05:39:52;;;;;;;;;;;9.30;99.90;;;;;;5015831;28;19921;-81
2022/12/29 05:42:18;;;;;;;;;;;9.50;99.90;;;;;;5015011;28;19909;-81
2022/12/29 05:44:44;;;;;;;;;;;9.50;99.90;;;;;;5015274;28;20270;-81
2022/12/29 05:47:09;;;;;;;;;;;9.60;99.90;;;;;;5015839;28;19916;-81
2022/12/29 05:49:35;;;;;;;;;;;9.70;99.90;;;;;;5004140;28;19914;-67
2022/12/29 05:52:00;;;;;;;;;;;9.70;99.90;;;;;;4996926;28;19910;-81
2022/12/29 05:54:26;;;;;;;;;;;9.60;99.90;;;;;;4997443;28;19998;-69
2022/12/29 05:56:51;;;;;;;;;;;9.80;99.90;;;;;;5014729;28;19910;-79
2022/12/29 05:59:17;;;;;;;;;;;9.90;99.90;;;;;;4997555;28;19968;-74
2022/12/29 06:01:42;;;;;;;;;;;10.10;99.90;;;;;;5014947;28;19910;-80
2022/12/29 06:04:08;;;;;;;;;;;10.00;99.90;;;;;;5015289;28;19955;-79
2022/12/29 06:06:34;;;;;;;;;;;10.00;99.90;;;;;;5015083;28;20365;-79
2022/12/29 06:08:59;;;;;;;;;;;10.00;99.90;;;;;;4997335;28;19956;-80
2022/12/29 06:11:25;;;;;;;;;;;10.00;99.90;;;;;;4997482;28;19909;-71
2022/12/29 06:13:50;;;;;;;;;;;9.90;99.90;;;;;;5013829;28;20341;-80
2022/12/29 06:16:16;;;;;;;;;;;9.80;99.90;;;;;;5014284;28;19910;-77
2022/12/29 06:18:42;;;;;;;;;;;9.80;99.90;;;;;;5014794;28;20004;-80
2022/12/29 06:21:07;;;;;;;;;;;9.70;99.90;;;;;;5014829;28;20280;-68
2022/12/29 06:23:33;;;;;;;;;;;9.70;99.90;;;;;;5014846;28;20320;-81
2022/12/29 06:25:59;;;;;;;;;;;9.60;99.90;;;;;;4996869;28;19917;-78
2022/12/29 06:28:24;;;;;;;;;;;9.50;99.90;;;;;;5014760;28;19909;-73
2022/12/29 06:30:50;;;;;;;;;;;9.60;99.90;;;;;;5015168;28;19909;-81
2022/12/29 06:33:16;;;;;;;;;;;9.60;99.90;;;;;;5014512;28;19998;-74
2022/12/29 06:35:42;;;;;;;;;;;9.60;99.90;;;;;;4996646;28;19909;-80
2022/12/29 06:38:08;;;;;;;;;;;9.50;99.90;;;;;;4996995;28;20430;-81
2022/12/29 06:40:33;;;;;;;;;;;9.40;99.90;;;;;;5014374;28;19936;-81
2022/12/29 06:42:59;;;;;;;;;;;9.30;99.90;;;;;;5013560;28;19925;-82
2022/12/29 06:45:24;;;;;;;;;;;9.30;99.90;;;;;;5014457;28;19963;-79
2022/12/29 06:47:50;;;;;;;;;;;9.50;99.90;;;;;;5014598;28;20403;-82
2022/12/29 06:50:16;;;;;;;;;;;9.60;99.90;;;;;;5008631;28;19917;-75
2022/12/29 06:52:41;;;;;;;;;;;10.10;99.90;;;;;;4994880;28;19941;-78
2022/12/29 06:55:07;;;;;;;;;;;10.20;99.90;;;;;;5003761;28;19945;-73
2022/12/29 06:57:33;;;;;;;;;;;10.10;99.90;;;;;;5014461;28;19913;-80
2022/12/29 06:59:58;;;;;;;;;;;10.00;99.90;;;;;;5014395;28;19944;-80
2022/12/29 07:02:27;;;;;;;;;;;9.80;99.90;;;;;;5014237;28;19963;-81
2022/12/29 07:04:52;;;;;;;;;;;9.80;99.90;;;;;;5014257;28;19910;-81
2022/12/29 07:07:18;;;;;;;;;;;9.70;99.90;;;;;;5014063;28;19916;-80
2022/12/29 07:09:44;;;;;;;;;;;9.70;99.90;;;;;;5014427;28;20006;-80
2022/12/29 07:12:10;;;;;;;;;;;9.80;99.90;;;;;;5013252;28;19992;-79
2022/12/29 07:14:36;;;;;;;;;;;9.80;99.90;;;;;;4995623;28;19917;-80
2022/12/29 07:17:03;;;;;;;;;;;9.90;99.90;;;;;;4996759;28;19952;-80
2022/12/29 07:19:28;;;;;;;;;;;9.80;99.90;;;;;;5014238;28;20272;-66
2022/12/29 07:21:54;;;;;;;;;;;9.70;99.90;;;;;;5014337;28;19916;-80
2022/12/29 07:24:20;;;;;;;;;;;9.70;99.90;;;;;;5013908;28;19976;-80
2022/12/29 07:26:45;;;;;;;;;;;9.80;99.90;;;;;;4996401;28;20357;-81
2022/12/29 07:29:11;;;;;;;;;;;9.80;99.90;;;;;;5014223;28;19909;-80
2022/12/29 07:31:36;;;;;;;;;;;9.80;99.90;;;;;;4996582;28;19919;-81
2022/12/29 07:34:02;;;;;;;;;;;9.90;99.90;;;;;;4999783;28;19913;-81
2022/12/29 07:36:28;;;;;;;;;;;9.90;99.90;;;;;;4996152;28;20264;-80
2022/12/29 07:38:53;;;;;;;;;;;10.10;99.90;;;;;;5013955;28;19925;-72
2022/12/29 07:41:19;;;;;;;;;;;10.10;99.90;;;;;;5014127;28;19913;-81
2022/12/29 07:43:48;;;;;;;;;;;10.10;99.90;;;;;;5014216;28;20373;-80
2022/12/29 07:46:14;;;;;;;;;;;10.10;99.90;;;;;;5013429;28;19916;-80
2022/12/29 07:48:39;;;;;;;;;;;10.10;99.90;;;;;;5014145;28;20269;-80
2022/12/29 07:51:06;;;;;;;;;;;10.10;99.90;;;;;;4996551;28;19992;-79
2022/12/29 07:53:32;;;;;;;;;;;10.00;99.90;;;;;;5013976;28;19916;-79
2022/12/29 07:55:57;;;;;;;;;;;10.10;99.90;;;;;;4993300;28;19910;-68
2022/12/29 07:58:23;;;;;;;;;;;10.10;99.90;;;;;;5013243;28;19952;-82
2022/12/29 08:00:52;;;;;;;;;;;10.20;99.90;;;;;;5014039;28;19909;-81
2022/12/29 08:03:18;;;;;;;;;;;10.10;99.90;;;;;;5013950;28;20272;-80
2022/12/29 08:05:44;;;;;;;;;;;10.10;99.90;;;;;;5016083;28;19909;-81
2022/12/29 08:08:09;;;;;;;;;;;10.20;99.90;;;;;;5006663;28;19917;-79
2022/12/29 08:10:35;;;;;;;;;;;10.20;99.90;;;;;;5009934;28;20000;-67
2022/12/29 08:13:00;;;;;;;;;;;10.20;99.90;;;;;;5017215;28;19977;-81
2022/12/29 08:15:26;;;;;;;;;;;10.10;99.90;;;;;;5017263;28;19916;-75
2022/12/29 08:17:51;;;;;;;;;;;10.10;99.90;;;;;;5016685;28;19933;-80
2022/12/29 08:20:17;;;;;;;;;;;10.00;99.90;;;;;;5016415;28;19914;-70
2022/12/29 08:22:42;;;;;;;;;;;9.90;99.90;;;;;;5017069;28;19913;-80
2022/12/29 08:25:08;;;;;;;;;;;10.00;99.90;;;;;;5016907;28;19996;-80
2022/12/29 08:27:34;;;;;;;;;;;10.30;99.90;;;;;;5016818;28;19910;-81
2022/12/29 08:30:00;;;;;;;;;;;10.20;99.90;;;;;;5016969;28;20403;-78
2022/12/29 08:32:28;;;;;;;;;;;10.30;99.90;;;;;;5016065;28;19909;-67
2022/12/29 08:34:53;;;;;;;;;;;10.30;99.90;;;;;;5016997;28;19909;-69
2022/12/29 08:37:19;;;;;;;;;;;10.50;99.90;;;;;;5017014;28;19963;-67
2022/12/29 08:39:45;;;;;;;;;;;10.50;99.90;;;;;;5015791;28;19917;-75
2022/12/29 08:42:10;;;;;;;;;;;10.40;99.90;;;;;;5015963;28;19917;-80
2022/12/29 08:44:36;;;;;;;;;;;10.60;99.90;;;;;;4999992;28;19910;-77
2022/12/29 08:47:01;;;;;;;;;;;10.70;99.90;;;;;;5005573;28;19913;-80
2022/12/29 08:49:27;;;;;;;;;;;10.60;99.90;;;;;;5034565;28;19909;-76
2022/12/29 08:51:53;;;;;;;;;;;10.60;99.90;;;;;;5017366;28;19909;-73
2022/12/29 08:54:18;;;;;;;;;;;10.70;99.90;;;;;;5011129;28;19969;-74
2022/12/29 08:56:44;;;;;;;;;;;10.60;99.90;;;;;;5014705;28;19972;-81
2022/12/29 08:59:10;;;;;;;;;;;10.60;99.90;;;;;;5014680;28;20428;-71
2022/12/29 09:01:36;;;;;;;;;;;10.70;99.90;;;;;;5013922;28;20004;-71
2022/12/29 09:04:02;;;;;;;;;;;10.60;99.90;;;;;;5014135;28;19948;-75
2022/12/29 09:06:27;;;;;;;;;;;10.50;99.90;;;;;;5009194;28;19913;-83
2022/12/29 09:08:54;;;;;;;;;;;10.50;99.90;;;;;;4996670;28;20019;-91
2022/12/29 09:11:21;;;;;;;;;;;10.40;99.90;;;;;;4994703;28;19909;-69
2022/12/29 09:13:47;;;;;;;;;;;10.50;99.90;;;;;;4994420;28;19921;-77
2022/12/29 09:16:13;;;;;;;;;;;10.50;99.90;;;;;;5010857;28;19916;-68
2022/12/29 09:18:39;;;;;;;;;;;10.50;99.90;;;;;;5010849;28;20008;-68
2022/12/29 09:21:06;;;;;;;;;;;10.40;99.90;;;;;;5013691;28;19948;-70
2022/12/29 09:23:32;;;;;;;;;;;10.40;99.90;;;;;;5014299;28;19916;-80
2022/12/29 09:26:03;;;;;;;;;;;10.30;99.90;;;;;;5009330;28;20356;-78
2022/12/29 09:28:31;;;;;;;;;;;10.40;99.90;;;;;;4995917;28;19941;-79
2022/12/29 09:30:57;;;;;;;;;;;10.40;99.90;;;;;;5013649;28;19940;-70
2022/12/29 09:33:22;;;;;;;;;;;10.60;99.90;;;;;;5010681;28;19909;-80
2022/12/29 09:36:06;;;;;;;;;;;10.50;99.90;;;;;;5015677;28;19940;-67
2022/12/29 09:38:32;;;;;;;;;;;10.60;99.90;;;;;;5015518;28;20365;-67
2022/12/29 09:41:06;;;;;;;;;;;10.50;99.90;;;;;;5015770;28;19933;-79
2022/12/29 09:43:31;;;;;;;;;;;10.60;99.90;;;;;;4997046;28;19909;-79
2022/12/29 09:46:15;;;;;;;;;;;10.50;99.90;;;;;;5012811;28;19913;-71
2022/12/29 09:48:44;;;;;;;;;;;10.50;99.90;;;;;;5014025;28;20369;-68
2022/12/29 09:51:15;;;;;;;;;;;10.50;99.90;;;;;;5015326;28;19909;-67
2022/12/29 09:53:44;;;;;;;;;;;10.40;99.90;;;;;;4987867;28;19909;-80
2022/12/29 09:56:18;;;;;;;;;;;10.40;99.90;;;;;;5010604;28;19916;-81
2022/12/29 09:58:47;;;;;;;;;;;10.40;99.90;;;;;;5013356;28;19921;-67
2022/12/29 10:01:18;;;;;;;;;;;10.40;99.90;;;;;;5013842;28;19909;-69
2022/12/29 10:03:48;;;;;;;;;;;10.40;99.90;;;;;;5012550;28;19909;-74
2022/12/29 10:06:17;;;;;;;;;;;10.40;99.90;;;;;;4995357;28;20568;-75
2022/12/29 10:08:43;;;;;;;;;;;10.40;99.90;;;;;;5012238;28;19996;-79
2022/12/29 10:11:09;;;;;;;;;;;10.40;99.90;;;;;;5012844;28;19941;-68
2022/12/29 10:14:00;;;;;;;;;;;10.50;99.90;;;;;;4995651;28;19948;-79
2022/12/29 10:16:32;;;;;;;;;;;10.40;99.90;;;;;;4990255;28;20407;-78
2022/12/29 10:19:01;;;;;;;;;;;10.50;99.90;;;;;;5012179;28;20476;-79
2022/12/29 10:21:32;;;;;;;;;;;10.50;99.90;;;;;;5020181;28;19909;-78
2022/12/29 10:23:59;;;;;;;;;;;10.50;99.90;;;;;;5016961;28;19949;-77
2022/12/29 10:26:31;;;;;;;;;;;10.50;99.90;;;;;;5012940;28;19955;-70
2022/12/29 10:29:03;;;;;;;;;;;10.50;99.90;;;;;;5017658;28;19909;-73
2022/12/29 10:31:40;;;;;;;;;;;10.60;99.90;;;;;;5009644;28;19909;-80
2022/12/29 10:34:18;;;;;;;;;;;10.60;99.90;;;;;;5011962;28;20321;-78
2022/12/29 10:36:48;;;;;;;;;;;10.60;99.90;;;;;;5013317;28;19967;-68
2022/12/29 10:39:16;;;;;;;;;;;10.70;99.90;;;;;;5009209;28;20621;-71
2022/12/29 10:41:48;;;;;;;;;;;10.70;99.90;;;;;;5009679;28;19987;-78
2022/12/29 10:44:15;;;;;;;;;;;10.80;99.90;;;;;;4994380;28;19967;-71
2022/12/29 10:46:42;;;;;;;;;;;10.80;99.90;;;;;;4993416;28;20254;-79
2022/12/29 10:49:14;;;;;;;;;;;10.80;99.90;;;;;;5012002;28;19918;-80
2022/12/29 10:51:41;;;;;;;;;;;10.80;99.90;;;;;;5012854;28;19951;-80
2022/12/29 10:54:22;;;;;;;;;;;10.90;99.90;;;;;;4974698;28;20025;-81
2022/12/29 10:56:53;;;;;;;;;;;10.90;99.90;;;;;;5010828;28;19920;-80
2022/12/29 10:59:21;;;;;;;;;;;10.90;99.90;;;;;;5010424;28;19925;-79
2022/12/29 11:01:55;;;;;;;;;;;10.90;99.90;;;;;;5011870;28;20115;-80
2022/12/29 11:04:38;;;;;;;;;;;10.90;99.90;;;;;;5004221;28;20004;-80
2022/12/29 11:07:06;;;;;;;;;;;11.00;99.90;;;;;;5003516;28;19987;-81
2022/12/29 11:09:33;;;;;;;;;;;11.00;99.90;;;;;;4993490;28;20245;-80
2022/12/29 11:11:59;;;;;;;;;;;11.00;99.90;;;;;;4993919;28;19914;-76
2022/12/29 11:14:29;;;;;;;;;;;11.10;99.90;;;;;;5006188;28;19988;-79
2022/12/29 11:16:58;;;;;;;;;;;11.10;99.90;;;;;;5009363;28;20369;-71
2022/12/29 11:19:28;;;;;;;;;;;11.20;99.90;;;;;;5010696;28;19921;-78
2022/12/29 11:21:54;;;;;;;;;;;11.30;99.90;;;;;;5005842;28;19909;-74
2022/12/29 11:24:22;;;;;;;;;;;11.20;99.90;;;;;;4974017;28;19980;-81
2022/12/29 11:26:49;;;;;;;;;;;11.20;99.90;;;;;;4991933;28;19913;-79
2022/12/29 11:29:19;;;;;;;;;;;11.30;99.90;;;;;;5007257;28;20012;-79
2022/12/29 11:31:46;;;;;;;;;;;11.30;99.90;;;;;;5007442;28;19910;-76
2022/12/29 11:34:38;;;;;;;;;;;11.30;99.90;;;;;;5011596;28;19920;-80
2022/12/29 11:37:14;;;;;;;;;;;11.20;99.90;;;;;;4988322;28;19914;-79
2022/12/29 11:39:40;;;;;;;;;;;11.20;99.90;;;;;;5005105;28;19940;-76
2022/12/29 11:42:11;;;;;;;;;;;11.20;99.90;;;;;;5014955;28;19913;-79
2022/12/29 11:44:41;;;;;;;;;;;11.30;99.90;;;;;;4997390;28;19909;-79
2022/12/29 11:47:08;;;;;;;;;;;11.40;99.90;;;;;;5014166;28;19981;-79
2022/12/29 11:49:34;;;;;;;;;;;11.40;99.90;;;;;;4993418;28;19914;-75
2022/12/29 11:52:00;;;;;;;;;;;11.40;99.90;;;;;;5012611;28;19909;-77
2022/12/29 11:54:27;;;;;;;;;;;11.40;99.90;;;;;;5014631;28;19909;-77
2022/12/29 11:56:53;;;;;;;;;;;11.40;99.90;;;;;;5015202;28;19909;-77
2022/12/29 11:59:31;;;;;;;;;;;11.40;99.90;;;;;;5012630;28;19926;-70
2022/12/29 12:02:02;;;;;;;;;;;11.40;99.90;;;;;;5008562;28;19913;-76
2022/12/29 12:04:30;;;;;;;;;;;11.40;99.90;;;;;;4997073;28;20352;-80
2022/12/29 12:07:02;;;;;;;;;;;11.40;99.90;;;;;;5015435;28;20036;-79
2022/12/29 12:09:39;;;;;;;;;;;11.50;99.90;;;;;;5014027;28;20000;-78
2022/12/29 12:12:05;;;;;;;;;;;11.60;99.90;;;;;;5014006;28;20004;-80
2022/12/29 12:14:31;;;;;;;;;;;11.90;99.90;;;;;;5013932;28;19909;-76
2022/12/29 12:17:05;;;;;;;;;;;11.80;99.90;;;;;;4994801;28;19913;-79
2022/12/29 12:19:34;;;;;;;;;;;11.80;99.90;;;;;;5013576;28;19918;-81
2022/12/29 12:22:18;;;;;;;;;;;11.80;99.90;;;;;;4996482;28;19909;-81
2022/12/29 12:24:49;;;;;;;;;;;11.80;99.90;;;;;;5013548;28;19909;-71
2022/12/29 12:27:20;;;;;;;;;;;11.90;99.90;;;;;;5013188;28;19960;-71
2022/12/29 12:29:51;;;;;;;;;;;11.90;99.90;;;;;;5013329;28;19909;-73
2022/12/29 12:32:42;;;;;;;;;;;11.90;99.90;;;;;;5012651;28;19910;-78
2022/12/29 12:35:16;;;;;;;;;;;12.00;99.90;;;;;;5004200;28;20007;-77
2022/12/29 12:37:42;;;;;;;;;;;12.00;99.90;;;;;;5004270;28;19909;-80
2022/12/29 12:40:26;;;;;;;;;;;12.00;99.90;;;;;;5012560;28;20020;-78
2022/12/29 12:43:01;;;;;;;;;;;12.00;99.90;;;;;;5011691;28;19916;-79
2022/12/29 12:45:48;;;;;;;;;;;12.10;99.90;;;;;;5000296;28;19914;-82
2022/12/29 12:48:26;;;;;;;;;;;12.20;99.90;;;;;;5013002;28;20004;-68
2022/12/29 12:50:57;;;;;;;;;;;12.20;99.90;;;;;;5013821;28;19915;-78
2022/12/29 12:53:39;;;;;;;;;;;12.10;99.90;;;;;;5012361;28;19913;-77
2022/12/29 12:56:23;;;;;;;;;;;12.10;99.90;;;;;;4995651;28;20431;-78
2022/12/29 12:58:55;;;;;;;;;;;12.10;99.90;;;;;;5012961;28;19921;-75
2022/12/29 13:01:32;;;;;;;;;;;12.10;99.90;;;;;;5009325;28;20308;-79
2022/12/29 13:04:09;;;;;;;;;;;12.10;99.90;;;;;;5001720;28;20008;-79
2022/12/29 13:06:53;;;;;;;;;;;12.10;99.90;;;;;;4998270;28;20417;-76
2022/12/29 13:09:34;;;;;;;;;;;12.10;99.90;;;;;;4995596;28;19914;-80
2022/12/29 13:12:18;;;;;;;;;;;12.10;99.90;;;;;;4998137;28;20337;-79
2022/12/29 13:15:10;;;;;;;;;;;12.10;99.90;;;;;;4975923;28;20000;-68
2022/12/29 13:17:55;;;;;;;;;;;12.10;99.90;;;;;;4987356;28;20327;-72
2022/12/29 13:20:32;;;;;;;;;;;12.20;99.90;;;;;;5011848;28;19922;-77
2022/12/29 13:23:03;;;;;;;;;;;12.20;99.90;;;;;;4994639;28;19940;-78
2022/12/29 13:25:35;;;;;;;;;;;12.20;99.90;;;;;;5011739;28;19919;-75
2022/12/29 13:28:19;;;;;;;;;;;12.10;99.90;;;;;;4994707;28;19910;-79
2022/12/29 13:30:53;;;;;;;;;;;12.20;99.90;;;;;;5012244;28;20265;-81
2022/12/29 13:33:34;;;;;;;;;;;12.20;99.90;;;;;;5011203;28;20376;-79
2022/12/29 13:36:02;;;;;;;;;;;12.20;99.90;;;;;;5012534;28;20012;-78
2022/12/29 13:38:42;;;;;;;;;;;12.10;99.90;;;;;;4994708;28;19922;-74
2022/12/29 13:41:10;;;;;;;;;;;12.10;99.90;;;;;;5013689;28;19936;-68
2022/12/29 13:43:39;;;;;;;;;;;12.10;99.90;;;;;;5014780;28;19909;-73
2022/12/29 13:46:12;;;;;;;;;;;12.20;99.90;;;;;;4994994;28;20012;-72
2022/12/29 13:48:44;;;;;;;;;;;12.10;99.90;;;;;;5008297;28;20388;-68
2022/12/29 13:51:11;;;;;;;;;;;12.10;99.90;;;;;;5008103;28;19913;-68
2022/12/29 13:53:59;;;;;;;;;;;12.00;99.90;;;;;;5011673;28;19939;-73
2022/12/29 13:56:39;;;;;;;;;;;12.00;99.90;;;;;;4994884;28;20724;-71
2022/12/29 13:59:23;;;;;;;;;;;11.90;99.90;;;;;;5012476;28;20005;-69
2022/12/29 14:01:49;;;;;;;;;;;11.80;99.90;;;;;;5011621;28;19910;-69
2022/12/29 14:04:21;;;;;;;;;;;11.70;99.90;;;;;;5011022;28;19916;-71
2022/12/29 14:06:57;;;;;;;;;;;11.60;99.90;;;;;;5012164;28;19917;-72
2022/12/29 14:09:39;;;;;;;;;;;11.80;99.90;;;;;;5011685;28;19952;-75
2022/12/29 14:12:32;;;;;;;;;;;11.70;99.90;;;;;;5011146;28;19909;-68
2022/12/29 14:15:07;;;;;;;;;;;11.60;99.90;;;;;;4991658;28;19914;-69
2022/12/29 14:17:32;;;;;;;;;;;11.50;99.90;;;;;;5011232;28;19932;-70
2022/12/29 14:19:58;;;;;;;;;;;11.50;99.90;;;;;;4993165;28;20616;-69
2022/12/29 14:22:25;;;;;;;;;;;11.50;99.90;;;;;;5016588;28;20277;-68
2022/12/29 14:24:50;;;;;;;;;;;11.50;99.90;;;;;;5012705;28;19913;-75
2022/12/29 14:27:16;;;;;;;;;;;11.50;99.90;;;;;;4993844;28;20272;-75
2022/12/29 14:29:43;;;;;;;;;;;11.40;99.90;;;;;;5005447;28;19967;-75
2022/12/29 14:32:23;;;;;;;;;;;11.40;99.90;;;;;;5010527;28;19921;-71
2022/12/29 14:34:49;;;;;;;;;;;11.30;99.90;;;;;;4993831;28;20004;-71
2022/12/29 14:37:26;;;;;;;;;;;11.10;99.90;;;;;;5010611;28;20004;-68
2022/12/29 14:40:11;;;;;;;;;;;10.90;99.90;;;;;;4993488;28;20273;-68
2022/12/29 14:42:39;;;;;;;;;;;10.80;99.90;;;;;;5012025;28;19909;-71
2022/12/29 14:45:25;;;;;;;;;;;10.60;99.90;;;;;;5011095;28;19916;-68
2022/12/29 14:47:52;;;;;;;;;;;10.60;99.90;;;;;;5010131;28;19910;-77
2022/12/29 14:50:21;;;;;;;;;;;10.80;99.90;;;;;;4991592;28;20380;-69
2022/12/29 14:52:57;;;;;;;;;;;10.50;99.90;;;;;;5008788;28;19910;-72
2022/12/29 14:55:41;;;;;;;;;;;10.30;99.90;;;;;;5010948;28;19991;-71
2022/12/29 14:58:18;;;;;;;;;;;10.20;99.90;;;;;;5007214;28;19975;-75
2022/12/29 15:00:44;;;;;;;;;;;10.00;99.90;;;;;;4998075;28;19975;-72
2022/12/29 15:03:12;;;;;;;;;;;9.90;99.90;;;;;;4994093;28;19909;-85
2022/12/29 15:05:48;;;;;;;;;;;9.90;99.90;;;;;;4991044;28;20380;-82
2022/12/29 15:08:16;;;;;;;;;;;9.70;99.90;;;;;;5009825;28;19924;-83
2022/12/29 15:10:54;;;;;;;;;;;9.70;99.90;;;;;;5012347;28;19917;-71
2022/12/29 15:13:36;;;;;;;;;;;9.60;99.90;;;;;;5012477;28;19982;-73